sensor_id;sensor_type;location;lat;lon;timestamp;P1;durP1;ratioP1;P2;durP2;ratioP2
4504;SDS011;2265;48.794;9.520;2023-06-26T00:00:31;8.30;;;4.90;;
4504;SDS011;2265;48.794;9.520;2023-06-26T00:02:58;8.87;;;4.43;;
4504;SDS011;2265;48.794;9.520;2023-06-26T00:05:26;7.80;;;4.20;;
4504;SDS011;2265;48.794;9.520;2023-06-26T00:07:55;8.03;;;4.17;;
4504;SDS011;2265;48.794;9.520;2023-06-26T00:10:27;9.00;;;4.23;;
4504;SDS011;2265;48.794;9.520;2023-06-26T00:12:55;7.23;;;4.10;;
4504;SDS011;2265;48.794;9.520;2023-06-26T00:15:22;7.50;;;4.67;;
4504;SDS011;2265;48.794;9.520;2023-06-26T00:17:49;7.87;;;4.73;;
4504;SDS011;2265;48.794;9.520;2023-06-26T00:20:18;7.73;;;4.50;;
4504;SDS011;2265;48.794;9.520;2023-06-26T00:22:45;9.43;;;4.97;;
4504;SDS011;2265;48.794;9.520;2023-06-26T00:25:15;9.63;;;4.70;;
4504;SDS011;2265;48.794;9.520;2023-06-26T00:27:44;8.97;;;4.50;;
4504;SDS011;2265;48.794;9.520;2023-06-26T00:30:11;9.73;;;4.70;;
4504;SDS011;2265;48.794;9.520;2023-06-26T00:32:38;9.80;;;4.53;;
4504;SDS011;2265;48.794;9.520;2023-06-26T00:35:05;8.03;;;4.30;;
4504;SDS011;2265;48.794;9.520;2023-06-26T00:37:33;8.53;;;4.90;;
4504;SDS011;2265;48.794;9.520;2023-06-26T00:40:00;8.83;;;4.60;;
4504;SDS011;2265;48.794;9.520;2023-06-26T00:42:30;10.00;;;5.00;;
4504;SDS011;2265;48.794;9.520;2023-06-26T00:44:58;7.70;;;4.50;;
4504;SDS011;2265;48.794;9.520;2023-06-26T00:47:25;8.53;;;4.30;;
4504;SDS011;2265;48.794;9.520;2023-06-26T00:49:54;10.00;;;5.40;;
4504;SDS011;2265;48.794;9.520;2023-06-26T00:52:22;9.83;;;4.70;;
4504;SDS011;2265;48.794;9.520;2023-06-26T00:54:51;9.67;;;4.97;;
4504;SDS011;2265;48.794;9.520;2023-06-26T00:57:19;7.90;;;4.60;;
4504;SDS011;2265;48.794;9.520;2023-06-26T00:59:46;9.03;;;4.50;;
4504;SDS011;2265;48.794;9.520;2023-06-26T01:02:15;8.27;;;4.60;;
4504;SDS011;2265;48.794;9.520;2023-06-26T01:04:45;8.90;;;4.30;;
4504;SDS011;2265;48.794;9.520;2023-06-26T01:07:16;9.50;;;4.93;;
4504;SDS011;2265;48.794;9.520;2023-06-26T01:09:45;8.67;;;4.13;;
4504;SDS011;2265;48.794;9.520;2023-06-26T01:12:13;9.97;;;4.90;;
4504;SDS011;2265;48.794;9.520;2023-06-26T01:14:40;8.43;;;4.60;;
4504;SDS011;2265;48.794;9.520;2023-06-26T01:17:08;8.23;;;4.30;;
4504;SDS011;2265;48.794;9.520;2023-06-26T01:19:42;9.00;;;4.67;;
4504;SDS011;2265;48.794;9.520;2023-06-26T01:22:14;11.20;;;5.10;;
4504;SDS011;2265;48.794;9.520;2023-06-26T01:24:48;9.40;;;4.40;;
4504;SDS011;2265;48.794;9.520;2023-06-26T01:27:30;8.53;;;4.30;;
4504;SDS011;2265;48.794;9.520;2023-06-26T01:29:58;9.87;;;4.90;;
4504;SDS011;2265;48.794;9.520;2023-06-26T01:32:29;7.80;;;4.17;;
4504;SDS011;2265;48.794;9.520;2023-06-26T01:34:57;8.67;;;4.50;;
4504;SDS011;2265;48.794;9.520;2023-06-26T01:37:25;9.17;;;4.37;;
4504;SDS011;2265;48.794;9.520;2023-06-26T01:39:53;11.53;;;5.20;;
4504;SDS011;2265;48.794;9.520;2023-06-26T01:42:21;8.53;;;4.90;;
4504;SDS011;2265;48.794;9.520;2023-06-26T01:44:50;8.60;;;4.10;;
4504;SDS011;2265;48.794;9.520;2023-06-26T01:47:19;9.10;;;4.73;;
4504;SDS011;2265;48.794;9.520;2023-06-26T01:49:49;10.10;;;4.87;;
4504;SDS011;2265;48.794;9.520;2023-06-26T01:52:22;8.50;;;4.60;;
4504;SDS011;2265;48.794;9.520;2023-06-26T01:54:55;9.97;;;5.10;;
4504;SDS011;2265;48.794;9.520;2023-06-26T01:57:35;9.30;;;4.40;;
4504;SDS011;2265;48.794;9.520;2023-06-26T02:00:04;12.90;;;5.37;;
4504;SDS011;2265;48.794;9.520;2023-06-26T02:02:35;9.97;;;4.33;;
4504;SDS011;2265;48.794;9.520;2023-06-26T02:05:02;8.67;;;4.50;;
4504;SDS011;2265;48.794;9.520;2023-06-26T02:07:29;8.90;;;4.30;;
4504;SDS011;2265;48.794;9.520;2023-06-26T02:09:56;9.50;;;5.03;;
4504;SDS011;2265;48.794;9.520;2023-06-26T02:12:23;9.40;;;4.77;;
4504;SDS011;2265;48.794;9.520;2023-06-26T02:14:51;8.63;;;4.43;;
4504;SDS011;2265;48.794;9.520;2023-06-26T02:17:19;10.33;;;4.60;;
4504;SDS011;2265;48.794;9.520;2023-06-26T02:19:47;9.63;;;4.57;;
4504;SDS011;2265;48.794;9.520;2023-06-26T02:22:14;10.60;;;4.60;;
4504;SDS011;2265;48.794;9.520;2023-06-26T02:24:46;10.03;;;5.20;;
4504;SDS011;2265;48.794;9.520;2023-06-26T02:27:14;10.87;;;5.10;;
4504;SDS011;2265;48.794;9.520;2023-06-26T02:29:41;9.67;;;4.70;;
4504;SDS011;2265;48.794;9.520;2023-06-26T02:32:08;7.20;;;4.17;;
4504;SDS011;2265;48.794;9.520;2023-06-26T02:34:36;16.00;;;5.03;;
4504;SDS011;2265;48.794;9.520;2023-06-26T02:37:05;8.00;;;4.03;;
4504;SDS011;2265;48.794;9.520;2023-06-26T02:39:32;8.93;;;4.40;;
4504;SDS011;2265;48.794;9.520;2023-06-26T02:41:59;9.37;;;4.77;;
4504;SDS011;2265;48.794;9.520;2023-06-26T02:44:26;8.50;;;4.60;;
4504;SDS011;2265;48.794;9.520;2023-06-26T02:46:56;8.33;;;4.67;;
4504;SDS011;2265;48.794;9.520;2023-06-26T02:49:23;8.43;;;4.10;;
4504;SDS011;2265;48.794;9.520;2023-06-26T02:51:51;13.07;;;4.70;;
4504;SDS011;2265;48.794;9.520;2023-06-26T02:54:18;10.00;;;5.30;;
4504;SDS011;2265;48.794;9.520;2023-06-26T02:56:46;8.30;;;4.30;;
4504;SDS011;2265;48.794;9.520;2023-06-26T02:59:13;8.17;;;4.80;;
4504;SDS011;2265;48.794;9.520;2023-06-26T03:01:42;9.80;;;5.10;;
4504;SDS011;2265;48.794;9.520;2023-06-26T03:04:09;8.83;;;4.57;;
4504;SDS011;2265;48.794;9.520;2023-06-26T03:06:36;9.93;;;4.63;;
4504;SDS011;2265;48.794;9.520;2023-06-26T03:09:06;8.10;;;4.47;;
4504;SDS011;2265;48.794;9.520;2023-06-26T03:11:33;12.00;;;5.60;;
4504;SDS011;2265;48.794;9.520;2023-06-26T03:14:00;13.53;;;5.60;;
4504;SDS011;2265;48.794;9.520;2023-06-26T03:16:27;8.80;;;4.37;;
4504;SDS011;2265;48.794;9.520;2023-06-26T03:18:55;9.70;;;4.80;;
4504;SDS011;2265;48.794;9.520;2023-06-26T03:21:22;8.30;;;4.63;;
4504;SDS011;2265;48.794;9.520;2023-06-26T03:23:49;9.07;;;4.77;;
4504;SDS011;2265;48.794;9.520;2023-06-26T03:26:19;12.53;;;4.87;;
4504;SDS011;2265;48.794;9.520;2023-06-26T03:28:53;11.13;;;5.03;;
4504;SDS011;2265;48.794;9.520;2023-06-26T03:31:20;9.00;;;4.43;;
4504;SDS011;2265;48.794;9.520;2023-06-26T03:33:47;11.20;;;4.73;;
4504;SDS011;2265;48.794;9.520;2023-06-26T03:36:14;9.70;;;4.80;;
4504;SDS011;2265;48.794;9.520;2023-06-26T03:38:41;8.80;;;4.50;;
4504;SDS011;2265;48.794;9.520;2023-06-26T03:41:08;13.43;;;5.10;;
4504;SDS011;2265;48.794;9.520;2023-06-26T03:43:37;8.57;;;4.40;;
4504;SDS011;2265;48.794;9.520;2023-06-26T03:46:04;7.93;;;4.20;;
4504;SDS011;2265;48.794;9.520;2023-06-26T03:48:31;9.67;;;4.30;;
4504;SDS011;2265;48.794;9.520;2023-06-26T03:50:58;9.87;;;4.80;;
4504;SDS011;2265;48.794;9.520;2023-06-26T03:53:27;8.93;;;4.73;;
4504;SDS011;2265;48.794;9.520;2023-06-26T03:55:54;10.93;;;5.20;;
4504;SDS011;2265;48.794;9.520;2023-06-26T03:58:21;8.13;;;4.47;;
4504;SDS011;2265;48.794;9.520;2023-06-26T04:00:49;9.53;;;5.00;;
4504;SDS011;2265;48.794;9.520;2023-06-26T04:03:17;8.03;;;4.30;;
4504;SDS011;2265;48.794;9.520;2023-06-26T04:05:44;11.77;;;5.07;;
4504;SDS011;2265;48.794;9.520;2023-06-26T04:08:11;7.77;;;4.00;;
4504;SDS011;2265;48.794;9.520;2023-06-26T04:10:38;8.30;;;4.20;;
4504;SDS011;2265;48.794;9.520;2023-06-26T04:13:05;9.67;;;4.97;;
4504;SDS011;2265;48.794;9.520;2023-06-26T04:15:32;9.53;;;4.70;;
4504;SDS011;2265;48.794;9.520;2023-06-26T04:18:01;9.87;;;5.47;;
4504;SDS011;2265;48.794;9.520;2023-06-26T04:20:28;9.80;;;4.70;;
4504;SDS011;2265;48.794;9.520;2023-06-26T04:22:55;8.80;;;4.30;;
4504;SDS011;2265;48.794;9.520;2023-06-26T04:25:22;9.87;;;4.60;;
4504;SDS011;2265;48.794;9.520;2023-06-26T04:27:54;10.70;;;5.00;;
4504;SDS011;2265;48.794;9.520;2023-06-26T04:30:21;8.47;;;4.40;;
4504;SDS011;2265;48.794;9.520;2023-06-26T04:32:48;16.00;;;5.20;;
4504;SDS011;2265;48.794;9.520;2023-06-26T04:35:17;8.57;;;4.90;;
4504;SDS011;2265;48.794;9.520;2023-06-26T04:37:45;8.47;;;4.60;;
4504;SDS011;2265;48.794;9.520;2023-06-26T04:40:12;9.67;;;4.50;;
4504;SDS011;2265;48.794;9.520;2023-06-26T04:42:39;8.57;;;4.80;;
4504;SDS011;2265;48.794;9.520;2023-06-26T04:45:06;9.07;;;5.17;;
4504;SDS011;2265;48.794;9.520;2023-06-26T04:47:34;9.10;;;4.37;;
4504;SDS011;2265;48.794;9.520;2023-06-26T04:50:01;9.20;;;4.57;;
4504;SDS011;2265;48.794;9.520;2023-06-26T04:52:29;8.27;;;5.10;;
4504;SDS011;2265;48.794;9.520;2023-06-26T04:54:56;8.60;;;5.00;;
4504;SDS011;2265;48.794;9.520;2023-06-26T04:57:23;9.47;;;4.67;;
4504;SDS011;2265;48.794;9.520;2023-06-26T04:59:52;8.73;;;4.80;;
4504;SDS011;2265;48.794;9.520;2023-06-26T05:02:19;9.97;;;4.40;;
4504;SDS011;2265;48.794;9.520;2023-06-26T05:04:46;11.17;;;5.27;;
4504;SDS011;2265;48.794;9.520;2023-06-26T05:07:13;11.83;;;5.23;;
4504;SDS011;2265;48.794;9.520;2023-06-26T05:09:42;8.33;;;4.67;;
4504;SDS011;2265;48.794;9.520;2023-06-26T05:12:09;9.07;;;4.73;;
4504;SDS011;2265;48.794;9.520;2023-06-26T05:14:37;9.90;;;5.33;;
4504;SDS011;2265;48.794;9.520;2023-06-26T05:17:05;10.17;;;5.00;;
4504;SDS011;2265;48.794;9.520;2023-06-26T05:19:32;7.00;;;4.40;;
4504;SDS011;2265;48.794;9.520;2023-06-26T05:21:59;10.20;;;5.37;;
4504;SDS011;2265;48.794;9.520;2023-06-26T05:24:28;8.03;;;4.63;;
4504;SDS011;2265;48.794;9.520;2023-06-26T05:26:58;9.43;;;4.73;;
4504;SDS011;2265;48.794;9.520;2023-06-26T05:29:26;10.07;;;5.20;;
4504;SDS011;2265;48.794;9.520;2023-06-26T05:31:53;8.03;;;4.30;;
4504;SDS011;2265;48.794;9.520;2023-06-26T05:34:23;10.30;;;5.10;;
4504;SDS011;2265;48.794;9.520;2023-06-26T05:36:54;12.33;;;6.60;;
4504;SDS011;2265;48.794;9.520;2023-06-26T05:39:24;9.80;;;5.43;;
4504;SDS011;2265;48.794;9.520;2023-06-26T05:41:52;8.43;;;5.07;;
4504;SDS011;2265;48.794;9.520;2023-06-26T05:44:20;10.20;;;5.10;;
4504;SDS011;2265;48.794;9.520;2023-06-26T05:46:47;10.37;;;5.40;;
4504;SDS011;2265;48.794;9.520;2023-06-26T05:49:15;10.40;;;5.20;;
4504;SDS011;2265;48.794;9.520;2023-06-26T05:51:42;8.90;;;4.67;;
4504;SDS011;2265;48.794;9.520;2023-06-26T05:54:10;9.90;;;4.70;;
4504;SDS011;2265;48.794;9.520;2023-06-26T05:56:39;11.90;;;4.97;;
4504;SDS011;2265;48.794;9.520;2023-06-26T05:59:06;11.57;;;5.00;;
4504;SDS011;2265;48.794;9.520;2023-06-26T06:01:35;9.47;;;4.80;;
4504;SDS011;2265;48.794;9.520;2023-06-26T06:04:02;10.27;;;5.00;;
4504;SDS011;2265;48.794;9.520;2023-06-26T06:06:30;9.43;;;4.83;;
4504;SDS011;2265;48.794;9.520;2023-06-26T06:08:57;11.83;;;5.23;;
4504;SDS011;2265;48.794;9.520;2023-06-26T06:11:24;9.90;;;5.13;;
4504;SDS011;2265;48.794;9.520;2023-06-26T06:13:52;9.93;;;5.40;;
4504;SDS011;2265;48.794;9.520;2023-06-26T06:16:20;12.67;;;4.97;;
4504;SDS011;2265;48.794;9.520;2023-06-26T06:18:48;11.13;;;5.17;;
4504;SDS011;2265;48.794;9.520;2023-06-26T06:21:15;9.63;;;4.80;;
4504;SDS011;2265;48.794;9.520;2023-06-26T06:23:42;7.47;;;4.00;;
4504;SDS011;2265;48.794;9.520;2023-06-26T06:26:09;10.47;;;4.80;;
4504;SDS011;2265;48.794;9.520;2023-06-26T06:28:41;8.23;;;4.77;;
4504;SDS011;2265;48.794;9.520;2023-06-26T06:31:07;8.50;;;4.87;;
4504;SDS011;2265;48.794;9.520;2023-06-26T06:33:34;10.93;;;5.30;;
4504;SDS011;2265;48.794;9.520;2023-06-26T06:36:03;9.00;;;5.07;;
4504;SDS011;2265;48.794;9.520;2023-06-26T06:38:30;10.50;;;5.27;;
4504;SDS011;2265;48.794;9.520;2023-06-26T06:40:58;8.10;;;4.93;;
4504;SDS011;2265;48.794;9.520;2023-06-26T06:43:25;8.30;;;5.40;;
4504;SDS011;2265;48.794;9.520;2023-06-26T06:45:52;9.20;;;5.20;;
4504;SDS011;2265;48.794;9.520;2023-06-26T06:48:19;10.20;;;5.70;;
4504;SDS011;2265;48.794;9.520;2023-06-26T06:50:46;9.63;;;5.77;;
4504;SDS011;2265;48.794;9.520;2023-06-26T06:53:14;8.07;;;4.90;;
4504;SDS011;2265;48.794;9.520;2023-06-26T06:55:41;10.30;;;5.30;;
4504;SDS011;2265;48.794;9.520;2023-06-26T06:58:08;9.50;;;5.10;;
4504;SDS011;2265;48.794;9.520;2023-06-26T07:00:35;11.70;;;5.70;;
4504;SDS011;2265;48.794;9.520;2023-06-26T07:03:02;9.70;;;5.20;;
4504;SDS011;2265;48.794;9.520;2023-06-26T07:05:30;13.97;;;5.97;;
4504;SDS011;2265;48.794;9.520;2023-06-26T07:07:57;9.30;;;5.20;;
4504;SDS011;2265;48.794;9.520;2023-06-26T07:10:25;11.60;;;5.70;;
4504;SDS011;2265;48.794;9.520;2023-06-26T07:12:53;8.37;;;5.03;;
4504;SDS011;2265;48.794;9.520;2023-06-26T07:15:20;9.27;;;5.30;;
4504;SDS011;2265;48.794;9.520;2023-06-26T07:17:47;8.90;;;5.30;;
4504;SDS011;2265;48.794;9.520;2023-06-26T07:20:14;11.80;;;5.30;;
4504;SDS011;2265;48.794;9.520;2023-06-26T07:22:42;9.00;;;5.50;;
4504;SDS011;2265;48.794;9.520;2023-06-26T07:25:12;9.13;;;5.50;;
4504;SDS011;2265;48.794;9.520;2023-06-26T07:27:40;10.80;;;5.60;;
4504;SDS011;2265;48.794;9.520;2023-06-26T07:30:09;12.43;;;6.10;;
4504;SDS011;2265;48.794;9.520;2023-06-26T07:32:37;12.10;;;5.77;;
4504;SDS011;2265;48.794;9.520;2023-06-26T07:35:05;12.40;;;5.87;;
4504;SDS011;2265;48.794;9.520;2023-06-26T07:37:33;9.47;;;5.80;;
4504;SDS011;2265;48.794;9.520;2023-06-26T07:40:00;9.07;;;5.67;;
4504;SDS011;2265;48.794;9.520;2023-06-26T07:42:27;9.70;;;5.50;;
4504;SDS011;2265;48.794;9.520;2023-06-26T07:44:56;11.57;;;6.13;;
4504;SDS011;2265;48.794;9.520;2023-06-26T07:47:23;10.60;;;5.47;;
4504;SDS011;2265;48.794;9.520;2023-06-26T07:49:50;10.00;;;5.57;;
4504;SDS011;2265;48.794;9.520;2023-06-26T07:52:18;13.00;;;5.70;;
4504;SDS011;2265;48.794;9.520;2023-06-26T07:54:45;11.07;;;6.13;;
4504;SDS011;2265;48.794;9.520;2023-06-26T07:57:12;9.87;;;5.70;;
4504;SDS011;2265;48.794;9.520;2023-06-26T07:59:39;9.30;;;6.07;;
4504;SDS011;2265;48.794;9.520;2023-06-26T08:02:08;8.50;;;5.37;;
4504;SDS011;2265;48.794;9.520;2023-06-26T08:04:35;9.97;;;6.07;;
4504;SDS011;2265;48.794;9.520;2023-06-26T08:07:03;9.30;;;5.53;;
4504;SDS011;2265;48.794;9.520;2023-06-26T08:09:31;10.23;;;6.00;;
4504;SDS011;2265;48.794;9.520;2023-06-26T08:11:58;10.13;;;5.80;;
4504;SDS011;2265;48.794;9.520;2023-06-26T08:14:26;10.40;;;5.90;;
4504;SDS011;2265;48.794;9.520;2023-06-26T08:16:53;10.53;;;6.03;;
4504;SDS011;2265;48.794;9.520;2023-06-26T08:19:22;9.87;;;6.00;;
4504;SDS011;2265;48.794;9.520;2023-06-26T08:21:49;11.10;;;5.47;;
4504;SDS011;2265;48.794;9.520;2023-06-26T08:24:16;10.93;;;6.40;;
4504;SDS011;2265;48.794;9.520;2023-06-26T08:26:46;9.87;;;6.00;;
4504;SDS011;2265;48.794;9.520;2023-06-26T08:29:14;9.50;;;5.70;;
4504;SDS011;2265;48.794;9.520;2023-06-26T08:31:42;10.70;;;5.63;;
4504;SDS011;2265;48.794;9.520;2023-06-26T08:34:09;10.13;;;6.27;;
4504;SDS011;2265;48.794;9.520;2023-06-26T08:36:38;9.90;;;5.80;;
4504;SDS011;2265;48.794;9.520;2023-06-26T08:39:05;10.97;;;5.83;;
4504;SDS011;2265;48.794;9.520;2023-06-26T08:41:33;10.10;;;5.53;;
4504;SDS011;2265;48.794;9.520;2023-06-26T08:44:01;9.97;;;6.07;;
4504;SDS011;2265;48.794;9.520;2023-06-26T08:46:29;9.57;;;5.83;;
4504;SDS011;2265;48.794;9.520;2023-06-26T08:49:01;9.63;;;5.97;;
4504;SDS011;2265;48.794;9.520;2023-06-26T08:51:31;9.77;;;6.10;;
4504;SDS011;2265;48.794;9.520;2023-06-26T08:54:05;9.67;;;5.93;;
4504;SDS011;2265;48.794;9.520;2023-06-26T08:56:39;8.67;;;5.47;;
4504;SDS011;2265;48.794;9.520;2023-06-26T08:59:09;9.07;;;5.90;;
4504;SDS011;2265;48.794;9.520;2023-06-26T09:01:37;10.63;;;6.40;;
4504;SDS011;2265;48.794;9.520;2023-06-26T09:04:05;8.70;;;5.60;;
4504;SDS011;2265;48.794;9.520;2023-06-26T09:06:32;10.40;;;6.20;;
4504;SDS011;2265;48.794;9.520;2023-06-26T09:09:01;10.30;;;6.33;;
4504;SDS011;2265;48.794;9.520;2023-06-26T09:11:30;8.00;;;5.50;;
4504;SDS011;2265;48.794;9.520;2023-06-26T09:13:58;8.93;;;5.30;;
4504;SDS011;2265;48.794;9.520;2023-06-26T09:16:25;10.30;;;5.87;;
4504;SDS011;2265;48.794;9.520;2023-06-26T09:18:53;10.20;;;5.80;;
4504;SDS011;2265;48.794;9.520;2023-06-26T09:21:29;8.13;;;5.30;;
4504;SDS011;2265;48.794;9.520;2023-06-26T09:23:56;8.90;;;5.40;;
4504;SDS011;2265;48.794;9.520;2023-06-26T09:26:24;9.47;;;5.63;;
4504;SDS011;2265;48.794;9.520;2023-06-26T09:28:53;10.53;;;5.93;;
4504;SDS011;2265;48.794;9.520;2023-06-26T09:31:20;10.27;;;5.90;;
4504;SDS011;2265;48.794;9.520;2023-06-26T09:33:47;8.73;;;5.90;;
4504;SDS011;2265;48.794;9.520;2023-06-26T09:36:18;9.07;;;5.17;;
4504;SDS011;2265;48.794;9.520;2023-06-26T09:38:46;9.30;;;5.70;;
4504;SDS011;2265;48.794;9.520;2023-06-26T09:41:15;9.80;;;6.13;;
4504;SDS011;2265;48.794;9.520;2023-06-26T09:43:47;8.50;;;5.20;;
4504;SDS011;2265;48.794;9.520;2023-06-26T09:46:23;8.97;;;5.50;;
4504;SDS011;2265;48.794;9.520;2023-06-26T09:48:57;8.03;;;5.40;;
4504;SDS011;2265;48.794;9.520;2023-06-26T09:51:25;7.17;;;5.07;;
4504;SDS011;2265;48.794;9.520;2023-06-26T09:53:52;9.23;;;5.80;;
4504;SDS011;2265;48.794;9.520;2023-06-26T09:56:19;11.60;;;6.18;;
4504;SDS011;2265;48.794;9.520;2023-06-26T09:58:47;10.53;;;5.90;;
4504;SDS011;2265;48.794;9.520;2023-06-26T10:01:14;10.40;;;5.40;;
4504;SDS011;2265;48.794;9.520;2023-06-26T10:03:43;9.20;;;5.60;;
4504;SDS011;2265;48.794;9.520;2023-06-26T10:06:10;8.60;;;5.43;;
4504;SDS011;2265;48.794;9.520;2023-06-26T10:08:39;9.30;;;6.23;;
4504;SDS011;2265;48.794;9.520;2023-06-26T10:11:08;8.90;;;5.40;;
4504;SDS011;2265;48.794;9.520;2023-06-26T10:13:39;8.70;;;5.60;;
4504;SDS011;2265;48.794;9.520;2023-06-26T10:16:11;8.50;;;5.80;;
4504;SDS011;2265;48.794;9.520;2023-06-26T10:18:43;9.70;;;5.50;;
4504;SDS011;2265;48.794;9.520;2023-06-26T10:21:11;8.57;;;5.67;;
4504;SDS011;2265;48.794;9.520;2023-06-26T10:23:40;10.07;;;5.83;;
4504;SDS011;2265;48.794;9.520;2023-06-26T10:26:10;8.60;;;5.27;;
4504;SDS011;2265;48.794;9.520;2023-06-26T10:28:40;9.50;;;5.93;;
4504;SDS011;2265;48.794;9.520;2023-06-26T10:31:09;8.80;;;5.93;;
4504;SDS011;2265;48.794;9.520;2023-06-26T10:33:37;8.77;;;5.63;;
4504;SDS011;2265;48.794;9.520;2023-06-26T10:36:16;9.27;;;6.00;;
4504;SDS011;2265;48.794;9.520;2023-06-26T10:38:51;7.87;;;5.20;;
4504;SDS011;2265;48.794;9.520;2023-06-26T10:41:21;9.70;;;6.10;;
4504;SDS011;2265;48.794;9.520;2023-06-26T10:43:49;9.90;;;5.53;;
4504;SDS011;2265;48.794;9.520;2023-06-26T10:46:17;7.73;;;5.27;;
4504;SDS011;2265;48.794;9.520;2023-06-26T10:48:58;8.67;;;5.60;;
4504;SDS011;2265;48.794;9.520;2023-06-26T10:51:27;8.67;;;5.73;;
4504;SDS011;2265;48.794;9.520;2023-06-26T10:53:56;8.80;;;5.10;;
4504;SDS011;2265;48.794;9.520;2023-06-26T10:56:42;7.77;;;5.20;;
4504;SDS011;2265;48.794;9.520;2023-06-26T10:59:16;9.43;;;5.50;;
4504;SDS011;2265;48.794;9.520;2023-06-26T11:01:44;8.33;;;5.93;;
4504;SDS011;2265;48.794;9.520;2023-06-26T11:04:12;8.90;;;5.67;;
4504;SDS011;2265;48.794;9.520;2023-06-26T11:06:44;10.37;;;5.67;;
4504;SDS011;2265;48.794;9.520;2023-06-26T11:09:14;8.73;;;5.80;;
4504;SDS011;2265;48.794;9.520;2023-06-26T11:11:56;8.60;;;5.53;;
4504;SDS011;2265;48.794;9.520;2023-06-26T11:14:27;8.37;;;5.47;;
4504;SDS011;2265;48.794;9.520;2023-06-26T11:16:57;8.80;;;5.90;;
4504;SDS011;2265;48.794;9.520;2023-06-26T11:19:25;10.60;;;6.10;;
4504;SDS011;2265;48.794;9.520;2023-06-26T11:21:59;10.23;;;6.20;;
4504;SDS011;2265;48.794;9.520;2023-06-26T11:24:29;11.10;;;6.30;;
4504;SDS011;2265;48.794;9.520;2023-06-26T11:26:59;10.80;;;6.20;;
4504;SDS011;2265;48.794;9.520;2023-06-26T11:29:32;9.37;;;6.10;;
4504;SDS011;2265;48.794;9.520;2023-06-26T11:32:00;11.50;;;6.90;;
4504;SDS011;2265;48.794;9.520;2023-06-26T11:34:30;10.53;;;6.47;;
4504;SDS011;2265;48.794;9.520;2023-06-26T11:36:59;9.53;;;6.17;;
4504;SDS011;2265;48.794;9.520;2023-06-26T11:39:28;10.90;;;6.30;;
4504;SDS011;2265;48.794;9.520;2023-06-26T11:41:56;11.23;;;6.20;;
4504;SDS011;2265;48.794;9.520;2023-06-26T11:44:23;11.70;;;6.67;;
4504;SDS011;2265;48.794;9.520;2023-06-26T11:46:55;9.30;;;6.20;;
4504;SDS011;2265;48.794;9.520;2023-06-26T11:49:23;12.40;;;6.60;;
4504;SDS011;2265;48.794;9.520;2023-06-26T11:51:52;10.20;;;6.70;;
4504;SDS011;2265;48.794;9.520;2023-06-26T11:54:26;12.50;;;6.60;;
4504;SDS011;2265;48.794;9.520;2023-06-26T11:57:01;11.07;;;6.60;;
4504;SDS011;2265;48.794;9.520;2023-06-26T11:59:35;9.10;;;6.07;;
4504;SDS011;2265;48.794;9.520;2023-06-26T12:02:05;10.20;;;6.57;;
4504;SDS011;2265;48.794;9.520;2023-06-26T12:04:34;9.90;;;6.20;;
4504;SDS011;2265;48.794;9.520;2023-06-26T12:07:03;11.30;;;6.97;;
4504;SDS011;2265;48.794;9.520;2023-06-26T12:09:35;11.33;;;6.50;;
4504;SDS011;2265;48.794;9.520;2023-06-26T12:12:07;10.10;;;6.27;;
4504;SDS011;2265;48.794;9.520;2023-06-26T12:14:34;9.43;;;6.00;;
4504;SDS011;2265;48.794;9.520;2023-06-26T12:17:12;10.10;;;6.20;;
4504;SDS011;2265;48.794;9.520;2023-06-26T12:19:42;9.70;;;6.47;;
4504;SDS011;2265;48.794;9.520;2023-06-26T12:22:10;11.47;;;7.07;;
4504;SDS011;2265;48.794;9.520;2023-06-26T12:24:39;10.37;;;6.63;;
4504;SDS011;2265;48.794;9.520;2023-06-26T12:27:09;8.50;;;5.87;;
4504;SDS011;2265;48.794;9.520;2023-06-26T12:29:38;13.57;;;6.40;;
4504;SDS011;2265;48.794;9.520;2023-06-26T12:32:08;10.93;;;6.80;;
4504;SDS011;2265;48.794;9.520;2023-06-26T12:34:37;10.57;;;6.90;;
4504;SDS011;2265;48.794;9.520;2023-06-26T12:37:05;9.60;;;6.40;;
4504;SDS011;2265;48.794;9.520;2023-06-26T12:42:32;10.33;;;6.33;;
4504;SDS011;2265;48.794;9.520;2023-06-26T12:45:09;9.70;;;6.90;;
4504;SDS011;2265;48.794;9.520;2023-06-26T12:47:38;11.43;;;6.20;;
4504;SDS011;2265;48.794;9.520;2023-06-26T12:50:06;10.67;;;6.00;;
4504;SDS011;2265;48.794;9.520;2023-06-26T12:52:34;9.37;;;5.93;;
4504;SDS011;2265;48.794;9.520;2023-06-26T12:55:04;9.47;;;5.97;;
4504;SDS011;2265;48.794;9.520;2023-06-26T12:57:32;12.07;;;6.80;;
4504;SDS011;2265;48.794;9.520;2023-06-26T12:59:59;12.43;;;6.80;;
4504;SDS011;2265;48.794;9.520;2023-06-26T13:02:26;11.07;;;6.27;;
4504;SDS011;2265;48.794;9.520;2023-06-26T13:04:53;10.70;;;6.60;;
4504;SDS011;2265;48.794;9.520;2023-06-26T13:07:20;11.47;;;6.30;;
4504;SDS011;2265;48.794;9.520;2023-06-26T13:09:50;10.40;;;6.40;;
4504;SDS011;2265;48.794;9.520;2023-06-26T13:12:19;11.20;;;6.33;;
4504;SDS011;2265;48.794;9.520;2023-06-26T13:14:46;10.73;;;6.60;;
4504;SDS011;2265;48.794;9.520;2023-06-26T13:17:13;10.50;;;6.30;;
4504;SDS011;2265;48.794;9.520;2023-06-26T13:19:40;12.57;;;6.43;;
4504;SDS011;2265;48.794;9.520;2023-06-26T13:22:08;10.43;;;6.20;;
4504;SDS011;2265;48.794;9.520;2023-06-26T13:24:35;12.43;;;6.10;;
4504;SDS011;2265;48.794;9.520;2023-06-26T13:27:02;9.03;;;6.07;;
4504;SDS011;2265;48.794;9.520;2023-06-26T13:29:31;11.17;;;7.00;;
4504;SDS011;2265;48.794;9.520;2023-06-26T13:31:58;9.03;;;6.00;;
4504;SDS011;2265;48.794;9.520;2023-06-26T13:34:31;11.13;;;6.60;;
4504;SDS011;2265;48.794;9.520;2023-06-26T13:36:58;9.87;;;6.20;;
4504;SDS011;2265;48.794;9.520;2023-06-26T13:39:26;9.00;;;6.43;;
4504;SDS011;2265;48.794;9.520;2023-06-26T13:41:53;7.70;;;5.07;;
4504;SDS011;2265;48.794;9.520;2023-06-26T13:44:20;9.30;;;6.10;;
4504;SDS011;2265;48.794;9.520;2023-06-26T13:46:48;11.00;;;5.70;;
4504;SDS011;2265;48.794;9.520;2023-06-26T13:49:15;9.20;;;5.90;;
4504;SDS011;2265;48.794;9.520;2023-06-26T13:51:42;8.03;;;5.37;;
4504;SDS011;2265;48.794;9.520;2023-06-26T13:54:12;7.90;;;5.27;;
4504;SDS011;2265;48.794;9.520;2023-06-26T13:56:39;8.43;;;5.37;;
4504;SDS011;2265;48.794;9.520;2023-06-26T13:59:06;8.37;;;5.50;;
4504;SDS011;2265;48.794;9.520;2023-06-26T14:01:33;8.70;;;5.20;;
4504;SDS011;2265;48.794;9.520;2023-06-26T14:04:03;10.57;;;5.20;;
4504;SDS011;2265;48.794;9.520;2023-06-26T14:06:30;9.07;;;5.30;;
4504;SDS011;2265;48.794;9.520;2023-06-26T14:08:59;9.47;;;5.97;;
4504;SDS011;2265;48.794;9.520;2023-06-26T14:11:26;8.40;;;4.80;;
4504;SDS011;2265;48.794;9.520;2023-06-26T14:13:54;6.70;;;4.63;;
4504;SDS011;2265;48.794;9.520;2023-06-26T14:16:21;9.30;;;4.97;;
4504;SDS011;2265;48.794;9.520;2023-06-26T14:18:50;8.47;;;5.23;;
4504;SDS011;2265;48.794;9.520;2023-06-26T14:21:19;7.43;;;4.90;;
4504;SDS011;2265;48.794;9.520;2023-06-26T14:23:46;9.20;;;4.90;;
4504;SDS011;2265;48.794;9.520;2023-06-26T14:26:14;7.80;;;4.77;;
4504;SDS011;2265;48.794;9.520;2023-06-26T14:28:41;7.77;;;4.60;;
4504;SDS011;2265;48.794;9.520;2023-06-26T14:31:08;8.10;;;4.53;;
4504;SDS011;2265;48.794;9.520;2023-06-26T14:33:35;8.27;;;4.20;;
4504;SDS011;2265;48.794;9.520;2023-06-26T14:36:02;6.70;;;4.40;;
4504;SDS011;2265;48.794;9.520;2023-06-26T14:38:31;6.20;;;4.10;;
4504;SDS011;2265;48.794;9.520;2023-06-26T14:40:58;8.33;;;4.73;;
4504;SDS011;2265;48.794;9.520;2023-06-26T14:43:25;6.97;;;4.70;;
4504;SDS011;2265;48.794;9.520;2023-06-26T14:45:52;8.10;;;4.10;;
4504;SDS011;2265;48.794;9.520;2023-06-26T14:48:19;6.50;;;4.20;;
4504;SDS011;2265;48.794;9.520;2023-06-26T14:50:46;6.50;;;4.20;;
4504;SDS011;2265;48.794;9.520;2023-06-26T14:53:14;6.30;;;3.77;;
4504;SDS011;2265;48.794;9.520;2023-06-26T14:55:42;6.40;;;3.83;;
4504;SDS011;2265;48.794;9.520;2023-06-26T14:58:09;6.07;;;3.53;;
4504;SDS011;2265;48.794;9.520;2023-06-26T15:00:36;5.30;;;3.73;;
4504;SDS011;2265;48.794;9.520;2023-06-26T15:03:03;8.73;;;3.60;;
4504;SDS011;2265;48.794;9.520;2023-06-26T15:05:30;14.97;;;3.67;;
4504;SDS011;2265;48.794;9.520;2023-06-26T15:07:57;5.70;;;3.27;;
4504;SDS011;2265;48.794;9.520;2023-06-26T15:10:24;5.37;;;3.07;;
4504;SDS011;2265;48.794;9.520;2023-06-26T15:12:53;6.00;;;3.17;;
4504;SDS011;2265;48.794;9.520;2023-06-26T15:15:21;5.30;;;3.70;;
4504;SDS011;2265;48.794;9.520;2023-06-26T15:17:48;5.30;;;3.43;;
4504;SDS011;2265;48.794;9.520;2023-06-26T15:20:15;7.90;;;3.40;;